• Join FlightAware (Why Join?)
  • Login
  • US Flag 
08:18PM EST


 

Airport Tracker/Info


-or-


 

Live Flight TrackerFlight Track Log ✈ AAL1326 ✈ 05-Apr-2013 ✈ KMCI - KORD

Flight Track Log - Related Links

Times and Time Zones

All times are in EDT time to prevent confusion due to time zone crossing. See the AAL1326 flight status page for this flight to view local times or setup timezone preferences in your user account.

Time Position Orientation Groundspeed Altitude Reporting Facility
EDT Latitude Longitude Course Direction KTS MPH feet Rate Location/Type
04:29PM 39.2833 -94.7167 34° Northeast 164 189 1,700  Level Kansas City TRACON
04:31PM 39.1880 -94.6750 41° Northeast 273 314 5,000 1,740 Climbing FlightAware
04:32PM 39.4804 -94.4784 41° Northeast  Level FlightAware Approximate
04:32PM 39.2070 -94.6290 62° Northeast 303 349 6,000  Level FlightAware
04:32PM 39.2360 -94.6030 35° Northeast 304 350 7,300 3,120 Climbing FlightAware
04:33PM 39.2680 -94.5740 35° Northeast 303 349 8,900 2,880 Climbing FlightAware
04:33PM 39.3170 -94.5310 34° Northeast 320 368 10,700 2,520 Climbing FlightAware
04:34PM 39.3780 -94.4770 34° Northeast 350 403 12,500 2,520 Climbing FlightAware
04:35PM 39.4320 -94.4280 35° Northeast 364 419 14,300 2,820 Climbing FlightAware
04:35PM 39.4870 -94.3740 37° Northeast 376 433 16,300 2,820 Climbing FlightAware
04:36PM 39.5480 -94.3120 38° Northeast 389 448 18,300 2,640 Climbing FlightAware
04:37PM 39.6050 -94.2530 39° Northeast 397 457 20,100 2,520 Climbing FlightAware
04:38PM 39.6690 -94.1770 42° Northeast 422 486 21,900 2,280 Climbing FlightAware
04:38PM 39.7030 -94.0820 65° Northeast 439 505 23,400 2,220 Climbing FlightAware
04:39PM 39.7350 -93.9850 67° East 445 512 24,900 2,160 Climbing FlightAware
04:40PM 39.7660 -93.8920 67° East 449 517 26,300 1,800 Climbing FlightAware
04:40PM 39.8050 -93.7760 66° East 460 529 27,500 1,620 Climbing FlightAware
04:41PM 39.8440 -93.6580 67° East 469 540 28,800 1,920 Climbing FlightAware
04:42PM 39.8780 -93.5550 67° East 463 533 30,300 2,160 Climbing FlightAware
04:42PM 39.9100 -93.4550 67° East 458 527 31,700 1,860 Climbing FlightAware
04:43PM 39.9470 -93.3430 67° East 456 525 33,000 900 Climbing FlightAware
04:44PM 39.9800 -93.2400 67° East 456 525 33,000  Level FlightAware
04:45PM 40.0160 -93.1290 67° East 455 524 33,000  Level FlightAware
04:45PM 40.0480 -93.0290 67° East 455 524 33,000  Level FlightAware
04:46PM 40.0810 -92.9240 68° East 454 522 33,000  Level FlightAware
04:47PM 40.1140 -92.8230 67° East 454 522 33,000  Level FlightAware
04:47PM 40.1490 -92.7110 68° East 454 522 33,000  Level FlightAware
04:48PM 40.1800 -92.6130 67° East 454 522 33,000  Level FlightAware
04:49PM 40.2180 -92.4940 67° East 455 524 33,000  Level FlightAware
04:49PM 40.2430 -92.4150 67° East 455 524 33,000  Level FlightAware
04:50PM 40.2830 -92.2850 68° East 456 525 33,000  Level FlightAware
04:51PM 40.3170 -92.1760 68° East 457 526 33,000  Level FlightAware
04:52PM 40.3530 -92.0610 68° East 459 528 33,000  Level FlightAware
04:52PM 40.3840 -91.9590 68° East 460 529 33,000  Level FlightAware
04:53PM 40.4150 -91.8600 68° East 460 529 33,000  Level FlightAware
04:54PM 40.4520 -91.7370 68° East 460 529 33,000  Level FlightAware
04:55PM 40.4940 -91.6020 68° East 460 529 33,000  Level FlightAware
04:55PM 40.5240 -91.5020 68° East 461 531 33,000  Level FlightAware
04:56PM 40.5620 -91.3780 68° East 458 527 33,000  Level FlightAware
04:57PM 40.5990 -91.2710 65° Northeast 458 527 33,000  Level FlightAware
04:57PM 40.6310 -91.1800 65° Northeast 458 527 33,000  Level FlightAware
04:58PM 40.6700 -91.0630 66° East 457 526 33,000  Level FlightAware
04:59PM 40.7050 -90.9620 65° Northeast 457 526 33,000  Level FlightAware
04:59PM 40.7440 -90.8460 66° East 458 527 33,000  Level FlightAware
05:00PM 40.7860 -90.7220 66° East 459 528 33,000  Level FlightAware
05:01PM 40.8270 -90.6000 66° East 461 531 33,000 -240 Level FlightAware
05:02PM 40.8670 -90.4790 66° East 462 532 32,700 -600 Descending FlightAware
05:02PM 40.8960 -90.3910 66° East 463 533 32,200 -1,020 Descending FlightAware
05:03PM 40.9390 -90.2620 66° East 463 533 31,300 -720 Descending FlightAware
05:04PM 40.9670 -90.1800 66° East 463 533 31,200 -900 Descending FlightAware
05:05PM 41.0070 -90.0570 67° East 462 532 30,100 -1,440 Descending FlightAware
05:05PM 41.0400 -89.9550 67° East 456 525 29,200 -1,740 Descending FlightAware
05:06PM 41.0790 -89.8360 66° East 439 505 27,700 -2,160 Descending FlightAware
05:07PM 41.1100 -89.7400 67° East 431 496 26,200 -2,160 Descending FlightAware
05:07PM 41.1440 -89.6350 67° East 422 486 24,700 -2,160 Descending FlightAware
05:08PM 41.1780 -89.5430 64° Northeast 412 474 23,200 -2,220 Descending FlightAware
05:09PM 41.2190 -89.4410 62° Northeast 404 465 21,600 -2,100 Descending FlightAware
05:09PM 41.2490 -89.3670 62° Northeast 395 455 20,400 -1,860 Descending FlightAware
05:10PM 41.2900 -89.2660 62° Northeast 386 444 19,000 -1,740 Descending FlightAware
05:11PM 41.3250 -89.1790 62° Northeast 379 436 17,800 -1,800 Descending FlightAware
05:12PM 41.3580 -89.0960 62° Northeast 371 427 16,600 -1,800 Descending FlightAware
05:12PM 41.3930 -89.0090 62° Northeast 360 414 15,300 -1,800 Descending FlightAware
05:13PM 41.4240 -88.9310 62° Northeast 351 404 14,100 -1,740 Descending FlightAware
05:14PM 41.4570 -88.8480 62° Northeast 346 398 12,900 -1,740 Descending FlightAware
05:14PM 41.4870 -88.7720 62° Northeast 337 388 11,700 -1,620 Descending FlightAware
05:15PM 41.5160 -88.6990 62° Northeast 322 371 10,800 -660 Descending FlightAware
05:16PM 41.5450 -88.6240 63° Northeast 300 345 10,800 -120 Level FlightAware
05:16PM 41.5700 -88.5580 63° Northeast 299 344 10,700 -960 Descending FlightAware
05:17PM 41.5810 -88.5130 72° East 307 353 9,800 -1,800 Descending FlightAware
05:17PM 41.5940 -88.4590 72° East 302 348 9,100 -1,440 Descending FlightAware
05:18PM 41.6070 -88.4060 72° East 296 341 8,400 -1,320 Descending FlightAware
05:18PM 41.6160 -88.3650 74° East 293 337 7,900 -660 Descending FlightAware
05:19PM 41.6280 -88.3140 73° East 288 331 7,800 -120 Descending FlightAware
05:19PM 41.6410 -88.2720 67° East 277 319 7,800  Level FlightAware
05:20PM 41.6680 -88.2340 46° Northeast 275 316 7,800 -300 Level FlightAware
05:20PM 41.6970 -88.2010 40° Northeast 277 319 7,500 -1,200 Descending FlightAware
05:21PM 41.7210 -88.1740 40° Northeast 279 321 6,700 -1,680 Descending FlightAware
05:21PM 41.7500 -88.1400 41° Northeast 269 310 6,000 -1,440 Descending FlightAware
05:22PM 41.7760 -88.1090 42° Northeast 263 303 5,300 -1,440 Descending FlightAware
05:22PM 41.7980 -88.0830 41° Northeast 240 276 4,700 -1,440 Descending FlightAware
05:23PM 41.8220 -88.0550 41° Northeast 209 241 4,000 -1,200 Descending FlightAware
05:23PM 41.8390 -88.0350 41° Northeast 199 229 3,600 -1,140 Descending FlightAware
05:23PM 41.8600 -88.0100 42° Northeast 193 222 3,000 -1,140 Descending FlightAware
05:24PM 41.8790 -87.9880 41° Northeast 177 204 2,500 -1,020 Descending FlightAware
05:24PM 41.8940 -87.9700 42° Northeast 171 197 2,100 -1,080 Descending FlightAware
05:25PM 41.9030 -87.9600 40° Northeast 165 190 1,800 -960 Descending FlightAware
05:25PM 41.9180 -87.9410 43° Northeast 142 163 1,400 -780 Descending FlightAware
05:26PM 41.9300 -87.9270 41° Northeast 138 159 1,100 -780 Descending FlightAware
05:26PM 41.9450 -87.9090 42° Northeast 138 159 700 -840 Descending FlightAware
05:26PM 41.9510 -87.9020 41° Northeast 137 158 500 -840 Descending FlightAware